sensor_id;sensor_type;location;lat;lon;timestamp;P1;durP1;ratioP1;P2;durP2;ratioP2
37169;SDS011;23062;13.952;100.608;2022-12-29T00:03:09;39.00;;;31.00;;
37169;SDS011;23062;13.952;100.608;2022-12-29T00:07:35;44.00;;;33.00;;
37169;SDS011;23062;13.952;100.608;2022-12-29T00:12:02;46.00;;;33.00;;
37169;SDS011;23062;13.952;100.608;2022-12-29T00:16:29;44.00;;;34.00;;
37169;SDS011;23062;13.952;100.608;2022-12-29T00:20:56;40.00;;;31.00;;
37169;SDS011;23062;13.952;100.608;2022-12-29T00:25:40;38.00;;;30.00;;
37169;SDS011;23062;13.952;100.608;2022-12-29T00:30:24;34.00;;;26.00;;
37169;SDS011;23062;13.952;100.608;2022-12-29T00:35:08;41.00;;;32.00;;
37169;SDS011;23062;13.952;100.608;2022-12-29T00:39:36;38.00;;;29.00;;
37169;SDS011;23062;13.952;100.608;2022-12-29T00:44:20;43.00;;;32.00;;
37169;SDS011;23062;13.952;100.608;2022-12-29T00:48:46;41.00;;;31.00;;
37169;SDS011;23062;13.952;100.608;2022-12-29T00:53:31;46.00;;;34.00;;
37169;SDS011;23062;13.952;100.608;2022-12-29T00:57:57;52.00;;;41.00;;
37169;SDS011;23062;13.952;100.608;2022-12-29T01:02:23;48.00;;;37.00;;
37169;SDS011;23062;13.952;100.608;2022-12-29T01:06:49;47.00;;;37.00;;
37169;SDS011;23062;13.952;100.608;2022-12-29T01:11:17;49.00;;;36.00;;
37169;SDS011;23062;13.952;100.608;2022-12-29T01:15:48;53.00;;;42.00;;
37169;SDS011;23062;13.952;100.608;2022-12-29T01:20:13;55.00;;;41.00;;
37169;SDS011;23062;13.952;100.608;2022-12-29T01:24:41;65.00;;;50.00;;
37169;SDS011;23062;13.952;100.608;2022-12-29T01:29:08;61.00;;;45.00;;
37169;SDS011;23062;13.952;100.608;2022-12-29T01:33:35;52.00;;;41.00;;
37169;SDS011;23062;13.952;100.608;2022-12-29T01:38:04;63.00;;;50.00;;
37169;SDS011;23062;13.952;100.608;2022-12-29T01:42:31;49.00;;;39.00;;
37169;SDS011;23062;13.952;100.608;2022-12-29T01:46:57;54.00;;;43.00;;
37169;SDS011;23062;13.952;100.608;2022-12-29T01:51:24;49.00;;;38.00;;
37169;SDS011;23062;13.952;100.608;2022-12-29T01:55:55;76.00;;;57.00;;
37169;SDS011;23062;13.952;100.608;2022-12-29T02:00:23;53.00;;;42.00;;
37169;SDS011;23062;13.952;100.608;2022-12-29T02:04:52;51.00;;;37.00;;
37169;SDS011;23062;13.952;100.608;2022-12-29T02:09:20;49.00;;;38.00;;
37169;SDS011;23062;13.952;100.608;2022-12-29T02:13:47;47.00;;;36.00;;
37169;SDS011;23062;13.952;100.608;2022-12-29T02:37:26;42.00;;;32.00;;
37169;SDS011;23062;13.952;100.608;2022-12-29T02:42:21;42.00;;;30.80;;
37169;SDS011;23062;13.952;100.608;2022-12-29T02:47:14;34.00;;;26.00;;
37169;SDS011;23062;13.952;100.608;2022-12-29T02:56:30;22.00;;;16.00;;
37169;SDS011;23062;13.952;100.608;2022-12-29T03:01:13;21.00;;;16.00;;
37169;SDS011;23062;13.952;100.608;2022-12-29T03:05:37;20.00;;;14.00;;
37169;SDS011;23062;13.952;100.608;2022-12-29T03:15:09;17.00;;;12.00;;
37169;SDS011;23062;13.952;100.608;2022-12-29T03:20:04;17.00;;;12.00;;
37169;SDS011;23062;13.952;100.608;2022-12-29T03:24:31;18.00;;;13.00;;
37169;SDS011;23062;13.952;100.608;2022-12-29T03:28:59;19.00;;;15.00;;
37169;SDS011;23062;13.952;100.608;2022-12-29T03:33:27;25.00;;;19.00;;
37169;SDS011;23062;13.952;100.608;2022-12-29T03:42:36;18.00;;;13.00;;
37169;SDS011;23062;13.952;100.608;2022-12-29T03:47:05;17.00;;;12.00;;
37169;SDS011;23062;13.952;100.608;2022-12-29T03:51:31;18.00;;;13.00;;
37169;SDS011;23062;13.952;100.608;2022-12-29T03:55:57;15.00;;;11.00;;
37169;SDS011;23062;13.952;100.608;2022-12-29T04:00:24;19.00;;;14.00;;
37169;SDS011;23062;13.952;100.608;2022-12-29T04:04:51;17.00;;;12.00;;
37169;SDS011;23062;13.952;100.608;2022-12-29T04:09:18;16.00;;;11.00;;
37169;SDS011;23062;13.952;100.608;2022-12-29T04:13:44;16.00;;;11.00;;
37169;SDS011;23062;13.952;100.608;2022-12-29T04:18:11;20.00;;;14.00;;
37169;SDS011;23062;13.952;100.608;2022-12-29T04:22:37;11.00;;;8.00;;
37169;SDS011;23062;13.952;100.608;2022-12-29T04:27:03;13.00;;;9.00;;
37169;SDS011;23062;13.952;100.608;2022-12-29T04:31:33;13.00;;;10.00;;
37169;SDS011;23062;13.952;100.608;2022-12-29T04:35:59;13.00;;;9.00;;
37169;SDS011;23062;13.952;100.608;2022-12-29T04:40:29;11.00;;;8.00;;
37169;SDS011;23062;13.952;100.608;2022-12-29T04:44:55;11.00;;;8.00;;
37169;SDS011;23062;13.952;100.608;2022-12-29T04:49:22;11.00;;;7.00;;
37169;SDS011;23062;13.952;100.608;2022-12-29T04:53:48;11.00;;;8.00;;
37169;SDS011;23062;13.952;100.608;2022-12-29T04:58:17;12.00;;;9.00;;
37169;SDS011;23062;13.952;100.608;2022-12-29T05:02:43;14.00;;;10.00;;
37169;SDS011;23062;13.952;100.608;2022-12-29T05:07:10;11.00;;;8.00;;
37169;SDS011;23062;13.952;100.608;2022-12-29T05:11:36;10.00;;;8.00;;
37169;SDS011;23062;13.952;100.608;2022-12-29T05:16:06;9.00;;;7.00;;
37169;SDS011;23062;13.952;100.608;2022-12-29T05:20:32;8.00;;;6.00;;
37169;SDS011;23062;13.952;100.608;2022-12-29T05:24:59;10.00;;;7.00;;
37169;SDS011;23062;13.952;100.608;2022-12-29T05:29:25;9.00;;;6.00;;
37169;SDS011;23062;13.952;100.608;2022-12-29T05:33:51;9.00;;;6.00;;
37169;SDS011;23062;13.952;100.608;2022-12-29T05:38:18;10.00;;;7.00;;
37169;SDS011;23062;13.952;100.608;2022-12-29T05:42:44;8.00;;;6.00;;
37169;SDS011;23062;13.952;100.608;2022-12-29T05:47:11;10.00;;;7.00;;
37169;SDS011;23062;13.952;100.608;2022-12-29T05:51:37;8.00;;;6.00;;
37169;SDS011;23062;13.952;100.608;2022-12-29T05:56:03;11.00;;;8.00;;
37169;SDS011;23062;13.952;100.608;2022-12-29T06:00:30;11.00;;;8.00;;
37169;SDS011;23062;13.952;100.608;2022-12-29T06:04:59;11.00;;;8.00;;
37169;SDS011;23062;13.952;100.608;2022-12-29T06:09:25;11.00;;;7.00;;
37169;SDS011;23062;13.952;100.608;2022-12-29T06:13:51;9.00;;;6.00;;
37169;SDS011;23062;13.952;100.608;2022-12-29T06:18:17;11.00;;;8.00;;
37169;SDS011;23062;13.952;100.608;2022-12-29T06:22:44;11.00;;;8.00;;
37169;SDS011;23062;13.952;100.608;2022-12-29T06:27:10;11.00;;;8.00;;
37169;SDS011;23062;13.952;100.608;2022-12-29T06:31:37;8.00;;;6.00;;
37169;SDS011;23062;13.952;100.608;2022-12-29T06:36:03;10.00;;;8.00;;
37169;SDS011;23062;13.952;100.608;2022-12-29T06:40:31;7.00;;;5.00;;
37169;SDS011;23062;13.952;100.608;2022-12-29T06:44:56;8.00;;;6.00;;
37169;SDS011;23062;13.952;100.608;2022-12-29T06:49:24;10.00;;;7.00;;
37169;SDS011;23062;13.952;100.608;2022-12-29T06:53:57;12.00;;;8.00;;
37169;SDS011;23062;13.952;100.608;2022-12-29T06:58:23;9.00;;;6.00;;
37169;SDS011;23062;13.952;100.608;2022-12-29T07:02:49;8.00;;;6.00;;
37169;SDS011;23062;13.952;100.608;2022-12-29T07:07:19;6.00;;;4.00;;
37169;SDS011;23062;13.952;100.608;2022-12-29T07:11:48;9.00;;;6.00;;
37169;SDS011;23062;13.952;100.608;2022-12-29T07:16:14;11.00;;;7.00;;
37169;SDS011;23062;13.952;100.608;2022-12-29T07:20:42;11.00;;;8.00;;
37169;SDS011;23062;13.952;100.608;2022-12-29T07:25:08;11.00;;;7.47;;
37169;SDS011;23062;13.952;100.608;2022-12-29T07:29:36;6.00;;;4.00;;
37169;SDS011;23062;13.952;100.608;2022-12-29T07:34:07;9.00;;;6.00;;
37169;SDS011;23062;13.952;100.608;2022-12-29T07:38:33;6.00;;;4.00;;
37169;SDS011;23062;13.952;100.608;2022-12-29T07:42:59;7.00;;;5.00;;
37169;SDS011;23062;13.952;100.608;2022-12-29T07:47:27;7.00;;;5.00;;
37169;SDS011;23062;13.952;100.608;2022-12-29T07:51:53;9.00;;;6.00;;
37169;SDS011;23062;13.952;100.608;2022-12-29T07:56:19;8.00;;;6.00;;
37169;SDS011;23062;13.952;100.608;2022-12-29T08:00:45;6.00;;;4.00;;
37169;SDS011;23062;13.952;100.608;2022-12-29T08:05:12;6.00;;;4.00;;
37169;SDS011;23062;13.952;100.608;2022-12-29T08:09:39;7.00;;;5.00;;
37169;SDS011;23062;13.952;100.608;2022-12-29T08:14:05;11.00;;;7.47;;
37169;SDS011;23062;13.952;100.608;2022-12-29T08:18:31;8.00;;;6.00;;
37169;SDS011;23062;13.952;100.608;2022-12-29T08:22:57;7.00;;;5.00;;
37169;SDS011;23062;13.952;100.608;2022-12-29T08:27:24;7.00;;;5.00;;
37169;SDS011;23062;13.952;100.608;2022-12-29T08:31:51;7.00;;;4.00;;
37169;SDS011;23062;13.952;100.608;2022-12-29T08:36:19;6.00;;;4.00;;
37169;SDS011;23062;13.952;100.608;2022-12-29T08:40:45;9.00;;;6.00;;
37169;SDS011;23062;13.952;100.608;2022-12-29T08:45:15;8.00;;;6.00;;
37169;SDS011;23062;13.952;100.608;2022-12-29T08:49:43;8.00;;;5.00;;
37169;SDS011;23062;13.952;100.608;2022-12-29T08:54:09;7.00;;;5.00;;
37169;SDS011;23062;13.952;100.608;2022-12-29T08:58:37;5.00;;;3.00;;
37169;SDS011;23062;13.952;100.608;2022-12-29T09:03:06;6.00;;;4.00;;
37169;SDS011;23062;13.952;100.608;2022-12-29T09:07:32;6.00;;;4.00;;
37169;SDS011;23062;13.952;100.608;2022-12-29T09:11:58;6.00;;;4.00;;
37169;SDS011;23062;13.952;100.608;2022-12-29T09:16:25;8.00;;;6.00;;
37169;SDS011;23062;13.952;100.608;2022-12-29T09:20:55;7.00;;;5.00;;
37169;SDS011;23062;13.952;100.608;2022-12-29T09:25:22;8.00;;;5.00;;
37169;SDS011;23062;13.952;100.608;2022-12-29T09:29:48;7.00;;;5.00;;
37169;SDS011;23062;13.952;100.608;2022-12-29T09:34:14;5.00;;;4.00;;
37169;SDS011;23062;13.952;100.608;2022-12-29T09:38:41;7.00;;;4.00;;
37169;SDS011;23062;13.952;100.608;2022-12-29T09:47:53;8.00;;;6.00;;
37169;SDS011;23062;13.952;100.608;2022-12-29T09:52:23;6.00;;;4.00;;
37169;SDS011;23062;13.952;100.608;2022-12-29T09:56:49;8.00;;;4.67;;
37169;SDS011;23062;13.952;100.608;2022-12-29T10:01:30;7.00;;;4.00;;
37169;SDS011;23062;13.952;100.608;2022-12-29T10:10:35;5.00;;;3.00;;
37169;SDS011;23062;13.952;100.608;2022-12-29T10:20:11;8.00;;;5.00;;
37169;SDS011;23062;13.952;100.608;2022-12-29T10:24:34;7.00;;;5.00;;
37169;SDS011;23062;13.952;100.608;2022-12-29T10:29:10;6.00;;;4.00;;
37169;SDS011;23062;13.952;100.608;2022-12-29T10:33:39;7.00;;;4.00;;
37169;SDS011;23062;13.952;100.608;2022-12-29T10:38:19;6.00;;;4.00;;
37169;SDS011;23062;13.952;100.608;2022-12-29T10:42:45;6.00;;;4.00;;
37169;SDS011;23062;13.952;100.608;2022-12-29T10:47:16;7.00;;;5.00;;
37169;SDS011;23062;13.952;100.608;2022-12-29T10:51:41;7.00;;;5.00;;
37169;SDS011;23062;13.952;100.608;2022-12-29T10:56:21;6.00;;;4.00;;
37169;SDS011;23062;13.952;100.608;2022-12-29T11:00:40;6.00;;;4.00;;
37169;SDS011;23062;13.952;100.608;2022-12-29T11:09:49;8.00;;;6.00;;
37169;SDS011;23062;13.952;100.608;2022-12-29T11:14:31;6.00;;;4.00;;
37169;SDS011;23062;13.952;100.608;2022-12-29T11:18:48;8.00;;;6.00;;
37169;SDS011;23062;13.952;100.608;2022-12-29T11:23:25;7.00;;;5.00;;
37169;SDS011;23062;13.952;100.608;2022-12-29T11:28:00;13.00;;;8.40;;
37169;SDS011;23062;13.952;100.608;2022-12-29T11:32:27;8.00;;;6.00;;
37169;SDS011;23062;13.952;100.608;2022-12-29T11:37:03;8.00;;;5.00;;
37169;SDS011;23062;13.952;100.608;2022-12-29T11:41:31;7.00;;;5.00;;
37169;SDS011;23062;13.952;100.608;2022-12-29T11:45:57;9.00;;;6.00;;
37169;SDS011;23062;13.952;100.608;2022-12-29T11:50:26;8.00;;;5.00;;
37169;SDS011;23062;13.952;100.608;2022-12-29T11:54:55;9.00;;;6.00;;
37169;SDS011;23062;13.952;100.608;2022-12-29T12:04:02;7.00;;;5.00;;
37169;SDS011;23062;13.952;100.608;2022-12-29T12:08:58;9.00;;;6.00;;
37169;SDS011;23062;13.952;100.608;2022-12-29T12:32:04;7.00;;;5.00;;
37169;SDS011;23062;13.952;100.608;2022-12-29T12:41:16;9.00;;;6.00;;
37169;SDS011;23062;13.952;100.608;2022-12-29T12:45:58;6.00;;;4.00;;
37169;SDS011;23062;13.952;100.608;2022-12-29T13:18:52;10.00;;;7.00;;
37169;SDS011;23062;13.952;100.608;2022-12-29T13:23:30;12.00;;;8.00;;
37169;SDS011;23062;13.952;100.608;2022-12-29T13:28:00;10.00;;;7.00;;
37169;SDS011;23062;13.952;100.608;2022-12-29T13:37:20;13.00;;;9.00;;
37169;SDS011;23062;13.952;100.608;2022-12-29T13:41:57;13.00;;;10.00;;
37169;SDS011;23062;13.952;100.608;2022-12-29T13:46:40;12.00;;;9.00;;
37169;SDS011;23062;13.952;100.608;2022-12-29T13:51:04;11.00;;;8.00;;
37169;SDS011;23062;13.952;100.608;2022-12-29T13:55:36;9.00;;;6.00;;
37169;SDS011;23062;13.952;100.608;2022-12-29T14:00:11;9.00;;;7.00;;
37169;SDS011;23062;13.952;100.608;2022-12-29T14:04:41;10.00;;;7.00;;
37169;SDS011;23062;13.952;100.608;2022-12-29T14:14:21;10.00;;;7.00;;
37169;SDS011;23062;13.952;100.608;2022-12-29T14:18:48;14.00;;;10.00;;
37169;SDS011;23062;13.952;100.608;2022-12-29T14:23:25;12.00;;;9.00;;
37169;SDS011;23062;13.952;100.608;2022-12-29T14:28:16;13.00;;;9.00;;
37169;SDS011;23062;13.952;100.608;2022-12-29T14:32:41;15.00;;;10.00;;
37169;SDS011;23062;13.952;100.608;2022-12-29T14:37:22;14.00;;;10.00;;
37169;SDS011;23062;13.952;100.608;2022-12-29T14:46:44;15.00;;;11.00;;
37169;SDS011;23062;13.952;100.608;2022-12-29T14:51:20;14.00;;;10.00;;
37169;SDS011;23062;13.952;100.608;2022-12-29T14:55:54;12.00;;;9.00;;
37169;SDS011;23062;13.952;100.608;2022-12-29T15:00:24;15.00;;;11.00;;
37169;SDS011;23062;13.952;100.608;2022-12-29T15:05:00;15.00;;;11.00;;
37169;SDS011;23062;13.952;100.608;2022-12-29T15:09:31;14.00;;;10.00;;
37169;SDS011;23062;13.952;100.608;2022-12-29T15:18:59;13.00;;;9.00;;
37169;SDS011;23062;13.952;100.608;2022-12-29T15:23:25;15.00;;;11.00;;
37169;SDS011;23062;13.952;100.608;2022-12-29T15:27:55;14.00;;;11.00;;
37169;SDS011;23062;13.952;100.608;2022-12-29T15:32:22;16.00;;;12.00;;
37169;SDS011;23062;13.952;100.608;2022-12-29T15:36:50;14.00;;;11.00;;
37169;SDS011;23062;13.952;100.608;2022-12-29T15:45:49;14.00;;;10.00;;
37169;SDS011;23062;13.952;100.608;2022-12-29T15:54:54;15.00;;;11.00;;
37169;SDS011;23062;13.952;100.608;2022-12-29T15:59:22;17.00;;;13.00;;
37169;SDS011;23062;13.952;100.608;2022-12-29T16:03:50;14.00;;;10.00;;
37169;SDS011;23062;13.952;100.608;2022-12-29T16:08:28;14.00;;;10.00;;
37169;SDS011;23062;13.952;100.608;2022-12-29T16:13:00;17.00;;;12.00;;
37169;SDS011;23062;13.952;100.608;2022-12-29T16:17:51;14.00;;;10.00;;
37169;SDS011;23062;13.952;100.608;2022-12-29T16:22:17;14.00;;;10.00;;
37169;SDS011;23062;13.952;100.608;2022-12-29T16:26:46;16.00;;;12.00;;
37169;SDS011;23062;13.952;100.608;2022-12-29T16:31:49;17.00;;;12.00;;
37169;SDS011;23062;13.952;100.608;2022-12-29T16:40:58;17.00;;;13.00;;
37169;SDS011;23062;13.952;100.608;2022-12-29T16:50:17;15.00;;;10.00;;
37169;SDS011;23062;13.952;100.608;2022-12-29T16:54:53;14.00;;;11.00;;
37169;SDS011;23062;13.952;100.608;2022-12-29T17:03:53;16.00;;;11.00;;
37169;SDS011;23062;13.952;100.608;2022-12-29T17:08:22;17.00;;;12.00;;
37169;SDS011;23062;13.952;100.608;2022-12-29T17:12:51;13.00;;;10.00;;
37169;SDS011;23062;13.952;100.608;2022-12-29T17:17:17;16.00;;;11.00;;
37169;SDS011;23062;13.952;100.608;2022-12-29T17:21:50;18.00;;;13.00;;
37169;SDS011;23062;13.952;100.608;2022-12-29T17:26:16;17.00;;;12.00;;
37169;SDS011;23062;13.952;100.608;2022-12-29T17:30:42;17.00;;;12.00;;
37169;SDS011;23062;13.952;100.608;2022-12-29T17:35:15;21.00;;;15.00;;
37169;SDS011;23062;13.952;100.608;2022-12-29T17:39:42;17.00;;;13.00;;
37169;SDS011;23062;13.952;100.608;2022-12-29T17:44:18;17.00;;;12.00;;
37169;SDS011;23062;13.952;100.608;2022-12-29T17:48:47;16.00;;;12.00;;
37169;SDS011;23062;13.952;100.608;2022-12-29T17:53:14;16.00;;;12.00;;
37169;SDS011;23062;13.952;100.608;2022-12-29T17:57:44;16.00;;;12.00;;
37169;SDS011;23062;13.952;100.608;2022-12-29T18:06:51;15.00;;;11.00;;
37169;SDS011;23062;13.952;100.608;2022-12-29T18:11:24;19.00;;;14.00;;
37169;SDS011;23062;13.952;100.608;2022-12-29T18:15:52;19.00;;;13.00;;
37169;SDS011;23062;13.952;100.608;2022-12-29T18:20:20;16.00;;;12.00;;
37169;SDS011;23062;13.952;100.608;2022-12-29T18:24:46;17.00;;;13.00;;
37169;SDS011;23062;13.952;100.608;2022-12-29T18:29:13;18.00;;;13.00;;
37169;SDS011;23062;13.952;100.608;2022-12-29T18:33:39;17.00;;;13.00;;
37169;SDS011;23062;13.952;100.608;2022-12-29T18:38:05;18.00;;;13.00;;
37169;SDS011;23062;13.952;100.608;2022-12-29T18:42:34;19.00;;;14.00;;
37169;SDS011;23062;13.952;100.608;2022-12-29T18:47:00;17.00;;;12.00;;
37169;SDS011;23062;13.952;100.608;2022-12-29T18:51:29;20.00;;;14.00;;
37169;SDS011;23062;13.952;100.608;2022-12-29T18:55:55;18.00;;;13.00;;
37169;SDS011;23062;13.952;100.608;2022-12-29T19:00:21;17.00;;;13.00;;
37169;SDS011;23062;13.952;100.608;2022-12-29T19:04:48;17.00;;;13.00;;
37169;SDS011;23062;13.952;100.608;2022-12-29T19:09:14;21.00;;;16.00;;
37169;SDS011;23062;13.952;100.608;2022-12-29T19:13:44;18.00;;;13.00;;
37169;SDS011;23062;13.952;100.608;2022-12-29T19:18:19;21.00;;;15.00;;
37169;SDS011;23062;13.952;100.608;2022-12-29T19:22:49;18.00;;;13.00;;
37169;SDS011;23062;13.952;100.608;2022-12-29T19:27:15;19.00;;;15.00;;
37169;SDS011;23062;13.952;100.608;2022-12-29T19:31:41;17.00;;;13.00;;
37169;SDS011;23062;13.952;100.608;2022-12-29T19:36:10;19.00;;;14.00;;
37169;SDS011;23062;13.952;100.608;2022-12-29T19:40:43;20.00;;;14.00;;
37169;SDS011;23062;13.952;100.608;2022-12-29T19:45:10;23.00;;;17.00;;
37169;SDS011;23062;13.952;100.608;2022-12-29T19:49:40;20.00;;;15.00;;
37169;SDS011;23062;13.952;100.608;2022-12-29T19:54:07;22.00;;;17.00;;
37169;SDS011;23062;13.952;100.608;2022-12-29T19:58:34;23.00;;;16.00;;
37169;SDS011;23062;13.952;100.608;2022-12-29T20:03:01;38.00;;;28.00;;
37169;SDS011;23062;13.952;100.608;2022-12-29T20:07:27;121.00;;;92.00;;
37169;SDS011;23062;13.952;100.608;2022-12-29T20:11:53;176.00;;;133.00;;
37169;SDS011;23062;13.952;100.608;2022-12-29T20:16:19;210.00;;;157.00;;
37169;SDS011;23062;13.952;100.608;2022-12-29T20:20:47;192.00;;;151.00;;
37169;SDS011;23062;13.952;100.608;2022-12-29T20:25:13;224.00;;;170.00;;
37169;SDS011;23062;13.952;100.608;2022-12-29T20:29:43;199.00;;;156.00;;
37169;SDS011;23062;13.952;100.608;2022-12-29T20:34:09;216.00;;;168.00;;
37169;SDS011;23062;13.952;100.608;2022-12-29T20:38:38;225.00;;;169.00;;
37169;SDS011;23062;13.952;100.608;2022-12-29T20:43:05;231.00;;;179.00;;
37169;SDS011;23062;13.952;100.608;2022-12-29T20:47:31;192.00;;;146.00;;
37169;SDS011;23062;13.952;100.608;2022-12-29T20:52:00;222.00;;;175.00;;
37169;SDS011;23062;13.952;100.608;2022-12-29T20:56:27;212.00;;;164.00;;
37169;SDS011;23062;13.952;100.608;2022-12-29T21:00:54;219.00;;;162.00;;
37169;SDS011;23062;13.952;100.608;2022-12-29T21:05:21;231.00;;;176.00;;
37169;SDS011;23062;13.952;100.608;2022-12-29T21:09:51;298.00;;;224.00;;
37169;SDS011;23062;13.952;100.608;2022-12-29T21:14:16;248.00;;;184.00;;
37169;SDS011;23062;13.952;100.608;2022-12-29T21:18:43;167.00;;;125.00;;
37169;SDS011;23062;13.952;100.608;2022-12-29T21:23:09;154.00;;;112.93;;
37169;SDS011;23062;13.952;100.608;2022-12-29T21:27:35;213.00;;;160.00;;
37169;SDS011;23062;13.952;100.608;2022-12-29T21:32:03;173.00;;;138.00;;
37169;SDS011;23062;13.952;100.608;2022-12-29T21:36:29;238.00;;;177.00;;
37169;SDS011;23062;13.952;100.608;2022-12-29T21:40:55;303.00;;;227.00;;
37169;SDS011;23062;13.952;100.608;2022-12-29T21:45:22;167.00;;;124.00;;
37169;SDS011;23062;13.952;100.608;2022-12-29T21:49:48;187.00;;;144.00;;
37169;SDS011;23062;13.952;100.608;2022-12-29T21:54:21;146.00;;;110.00;;
37169;SDS011;23062;13.952;100.608;2022-12-29T21:59:07;131.00;;;102.00;;
37169;SDS011;23062;13.952;100.608;2022-12-29T22:03:51;121.00;;;95.00;;
37169;SDS011;23062;13.952;100.608;2022-12-29T22:08:40;117.00;;;88.00;;
37169;SDS011;23062;13.952;100.608;2022-12-29T22:13:24;86.00;;;67.00;;
37169;SDS011;23062;13.952;100.608;2022-12-29T22:17:51;51.00;;;39.00;;
37169;SDS011;23062;13.952;100.608;2022-12-29T22:22:18;37.00;;;29.00;;
37169;SDS011;23062;13.952;100.608;2022-12-29T22:26:46;35.00;;;27.00;;
37169;SDS011;23062;13.952;100.608;2022-12-29T22:31:28;37.00;;;25.20;;
37169;SDS011;23062;13.952;100.608;2022-12-29T22:35:54;29.00;;;21.00;;
37169;SDS011;23062;13.952;100.608;2022-12-29T22:40:23;28.00;;;21.00;;
37169;SDS011;23062;13.952;100.608;2022-12-29T22:44:49;25.00;;;19.00;;
37169;SDS011;23062;13.952;100.608;2022-12-29T22:49:15;24.00;;;18.00;;
37169;SDS011;23062;13.952;100.608;2022-12-29T22:53:41;28.00;;;22.00;;
37169;SDS011;23062;13.952;100.608;2022-12-29T22:58:07;29.00;;;21.00;;
37169;SDS011;23062;13.952;100.608;2022-12-29T23:02:35;37.00;;;23.40;;
37169;SDS011;23062;13.952;100.608;2022-12-29T23:07:02;37.00;;;29.00;;
37169;SDS011;23062;13.952;100.608;2022-12-29T23:11:28;37.00;;;28.00;;
37169;SDS011;23062;13.952;100.608;2022-12-29T23:15:55;25.00;;;18.00;;
37169;SDS011;23062;13.952;100.608;2022-12-29T23:20:28;25.00;;;18.00;;
37169;SDS011;23062;13.952;100.608;2022-12-29T23:24:56;34.00;;;27.00;;
37169;SDS011;23062;13.952;100.608;2022-12-29T23:29:24;23.00;;;17.00;;
37169;SDS011;23062;13.952;100.608;2022-12-29T23:33:51;27.00;;;20.00;;
37169;SDS011;23062;13.952;100.608;2022-12-29T23:38:21;25.00;;;20.00;;
37169;SDS011;23062;13.952;100.608;2022-12-29T23:42:47;22.00;;;17.00;;
37169;SDS011;23062;13.952;100.608;2022-12-29T23:47:13;21.00;;;16.00;;
37169;SDS011;23062;13.952;100.608;2022-12-29T23:51:46;18.00;;;13.00;;
37169;SDS011;23062;13.952;100.608;2022-12-29T23:56:16;21.00;;;16.00;;
